Pagrindinis puslapis
METAR-TAF:

METAR-TAF

Oro uostai :

Mahadzanga, Madagaskaras

platuma: 15-40S, ilguma: 046-21E, Aukštis: 26 m

Dabartinis oras

Ataskaita buvo paskelbta 1 valandą ir 20 minutes, ne 20:00 UTC
Vėjas 7 kt iš Rytų/Šiaurės Rytų, svyruoja nuo Šiaurės Rytų ir Rytų
Temperatūra 26°C
Drėgmė 74%
Slėgis 1016 hPa
Matomumas 10 km arba daugiau
Mažai debesys ne aukštis 4000 ft

METAR: FMNM 222000Z 07007KT 040V100 9999 FEW040 26/21 Q1016

Laikas: 00:20 (21:20 UTC)

Prognozė

Ataskaita buvo paskelbta 4 valandos ir 20 minutes, ne 17:00 UTC
Prognozė galioja nuo 22 metu 18 UTC su 23 metu 18 UTC
Vėjas 10 kt iš Vakarų
Matomumas 10 km arba daugiau
Mažai debesys ne aukštis 2300 ft
Tapsmas
nuo 22 metu 20 UTC su 22 metu 22 UTC
Vėjas 12 kt iš Rytų/Pietryčių
Tapsmas
nuo 23 metu 10 UTC su 23 metu 12 UTC
Vėjas 10 kt iš Šiaurės Vakarų

TAF: FMNM 221700Z 2218/2318 28010KT 9999 FEW023 BECMG 2220/2222 12012KT BECMG 2310/2312 32010KT

Orai ataskaitas ir orų prognozės (METAR, TAF).

turimą stotys yra geltonos ir raudonos taškus žemėlapyje.

Perkelti pele per norėdami pamatyti stoties vardą.

Tada spustelėkite, norėdami matyti oro stebėjimo ir prognozės.

Norėdami pakeisti žemėlapį: spustelėkite ant žalios mygtukų su juodo kryžiaus žemyn,; žalią mygtuką su brūkšneliu, jei norite nutolinti; arba žalių rodyklių gretimoms žemėlapius.


METAR-TAF: